EmailTwitter


Observations de surface / France / LFMK (07635)

Régions: Québec | Canada | États-Unis | Europe | France | UK | Ailleurs
Station
Affichage
Infos & localisation pour LFMK (07635) | Aide pour décoder les METARs

Observations prises le 2018-10-18 à 18H30 UTC à CARCASSONNE/SALV, FR (LFMK)

Etat du ciel: couvert.

Température: 17.0 Celsius

Point de rosée: 15.0 Celsius

Humidité relative: 88%

Indice Humidex: 21.

Vents: Sud-ouest à 6 km/h ou 3 noeuds.

Pression au niveau moyen de la mer: 101.50 kilopascals.

Visibilité horizontale: 4.35 milles terrestres ou 6.96 kilomètres.

Hauteur du plafond: 1890 mètres ( 6200 pieds ).

Observation METAR:

LFMK 181830Z AUTO 21003KT 7000 3200 OVC062 17/15 Q1015=